createdAt,value
2018-07-13T00:01:59.108Z,4.50
2018-07-13T00:04:27.549Z,5.10
2018-07-13T00:06:56.023Z,4.67
2018-07-13T00:09:24.490Z,5.30
2018-07-13T00:11:53.002Z,6.30
2018-07-13T00:14:22.472Z,5.10
2018-07-13T00:16:53.062Z,4.60
2018-07-13T00:19:22.463Z,4.73
2018-07-13T00:21:50.969Z,5.40
2018-07-13T00:24:19.406Z,5.07
2018-07-13T00:26:47.866Z,6.67
2018-07-13T00:29:16.443Z,5.47
2018-07-13T00:31:45.275Z,5.40
2018-07-13T00:34:14.115Z,5.60
2018-07-13T00:36:42.910Z,5.40
2018-07-13T00:39:12.955Z,6.10
2018-07-13T00:41:42.111Z,6.00
2018-07-13T00:44:10.789Z,5.50
2018-07-13T00:46:39.229Z,4.80
2018-07-13T00:49:07.679Z,5.80
2018-07-13T00:51:36.144Z,5.33
2018-07-13T00:54:04.598Z,6.03
2018-07-13T00:56:32.999Z,5.73
2018-07-13T00:59:01.464Z,4.70
2018-07-13T01:01:29.891Z,5.40
2018-07-13T01:03:58.324Z,5.40
2018-07-13T01:06:26.769Z,5.37
2018-07-13T01:08:55.611Z,6.07
2018-07-13T01:11:24.213Z,6.37
2018-07-13T01:13:52.731Z,4.93
2018-07-13T01:16:21.211Z,5.57
2018-07-13T01:18:49.655Z,7.20
2018-07-13T01:21:18.470Z,4.70
2018-07-13T01:23:46.876Z,4.57
2018-07-13T01:26:15.356Z,5.93
2018-07-13T01:28:43.812Z,5.27
2018-07-13T01:31:12.246Z,5.67
2018-07-13T01:33:40.692Z,5.63
2018-07-13T01:36:09.174Z,4.37
2018-07-13T01:38:37.629Z,5.37
2018-07-13T01:41:06.079Z,4.73
2018-07-13T01:43:34.534Z,5.20
2018-07-13T01:46:02.998Z,4.90
2018-07-13T01:48:31.424Z,5.30
2018-07-13T01:50:59.868Z,4.83
2018-07-13T01:53:28.272Z,5.40
2018-07-13T01:55:56.707Z,6.07
2018-07-13T01:58:25.202Z,6.93
2018-07-13T02:00:53.638Z,6.43
2018-07-13T02:03:22.071Z,5.07
2018-07-13T02:05:50.491Z,6.33
2018-07-13T02:08:18.975Z,5.70
2018-07-13T02:10:47.416Z,5.83
2018-07-13T02:13:15.893Z,6.30
2018-07-13T02:15:44.525Z,5.57
2018-07-13T02:18:13.019Z,5.30
2018-07-13T02:20:41.651Z,5.90
2018-07-13T02:23:10.102Z,6.03
2018-07-13T02:25:38.535Z,5.80
2018-07-13T02:28:06.977Z,5.17
2018-07-13T02:30:35.397Z,5.20
2018-07-13T02:33:04.214Z,6.17
2018-07-13T02:35:32.680Z,5.40
2018-07-13T02:38:01.121Z,5.27
2018-07-13T02:40:29.540Z,4.80
2018-07-13T02:42:57.998Z,6.03
2018-07-13T02:45:26.447Z,6.07
2018-07-13T02:47:54.882Z,5.03
2018-07-13T02:50:23.287Z,5.43
2018-07-13T02:52:52.116Z,5.40
2018-07-13T02:55:20.591Z,4.80
2018-07-13T02:57:49.071Z,5.20
2018-07-13T03:00:17.521Z,4.63
2018-07-13T03:02:45.964Z,4.97
2018-07-13T03:05:14.420Z,4.57
2018-07-13T03:07:43.275Z,5.70
2018-07-13T03:10:11.743Z,4.87
2018-07-13T03:12:40.159Z,4.60
2018-07-13T03:15:08.624Z,5.10
2018-07-13T03:17:37.064Z,4.37
2018-07-13T03:20:05.525Z,4.63
2018-07-13T03:22:33.965Z,5.17
2018-07-13T03:25:02.408Z,4.93
2018-07-13T03:27:30.887Z,4.63
2018-07-13T03:29:59.322Z,5.50
2018-07-13T03:32:27.801Z,5.57
2018-07-13T03:34:56.225Z,5.03
2018-07-13T03:37:24.687Z,5.43
2018-07-13T03:39:53.137Z,5.40
2018-07-13T03:42:21.587Z,4.97
2018-07-13T03:44:50.007Z,6.23
2018-07-13T03:47:18.426Z,6.00
2018-07-13T03:49:46.852Z,5.43
2018-07-13T03:52:15.290Z,5.17
2018-07-13T03:54:43.733Z,5.10
2018-07-13T03:57:12.201Z,5.30
2018-07-13T03:59:40.652Z,6.03
2018-07-13T04:02:09.081Z,5.53
2018-07-13T04:04:37.934Z,5.60
2018-07-13T04:07:06.517Z,4.50
2018-07-13T04:09:35.074Z,5.77
2018-07-13T04:12:03.860Z,5.47
2018-07-13T04:14:32.306Z,4.63
2018-07-13T04:17:00.918Z,6.17
2018-07-13T04:19:29.699Z,5.00
2018-07-13T04:21:58.229Z,5.33
2018-07-13T04:24:26.707Z,6.00
2018-07-13T04:26:55.227Z,5.40
2018-07-13T04:29:23.691Z,5.60
2018-07-13T04:31:52.186Z,5.73
2018-07-13T04:34:20.676Z,6.70
2018-07-13T04:36:49.340Z,5.33
2018-07-13T04:39:17.805Z,6.37
2018-07-13T04:41:46.244Z,6.10
2018-07-13T04:44:14.854Z,5.97
2018-07-13T04:46:43.360Z,5.67
2018-07-13T04:49:12.039Z,5.90
2018-07-13T04:51:40.579Z,6.33
2018-07-13T04:54:09.103Z,7.37
2018-07-13T04:56:37.657Z,5.80
2018-07-13T04:59:06.182Z,6.27
2018-07-13T05:01:34.747Z,5.43
2018-07-13T05:04:03.281Z,6.50
2018-07-13T05:06:31.803Z,6.50
2018-07-13T05:09:00.355Z,6.90
2018-07-13T05:11:28.866Z,5.77
2018-07-13T05:13:57.332Z,7.00
2018-07-13T05:16:25.802Z,6.87
2018-07-13T05:18:54.252Z,6.50
2018-07-13T05:21:22.811Z,7.57
2018-07-13T05:23:51.488Z,8.67
2018-07-13T05:26:20.036Z,7.00
2018-07-13T05:28:48.539Z,7.03
2018-07-13T05:31:17.251Z,6.60
2018-07-13T05:33:45.787Z,7.20
2018-07-13T05:36:14.355Z,7.73
2018-07-13T05:38:42.966Z,8.30
2018-07-13T05:41:12.016Z,8.23
2018-07-13T05:43:40.541Z,8.00
2018-07-13T05:46:09.100Z,8.43
2018-07-13T05:48:38.490Z,7.80
2018-07-13T05:51:07.345Z,8.40
2018-07-13T05:53:36.109Z,8.37
2018-07-13T05:56:04.679Z,9.90
2018-07-13T05:58:33.263Z,10.27
2018-07-13T06:01:01.773Z,9.57
2018-07-13T06:03:30.348Z,9.53
2018-07-13T06:05:58.977Z,10.50
2018-07-13T06:08:28.336Z,8.90
2018-07-13T06:10:57.106Z,9.10
2018-07-13T06:13:25.596Z,8.73
2018-07-13T06:15:54.435Z,9.33
2018-07-13T06:18:23.012Z,9.07
2018-07-13T06:20:51.506Z,9.50
2018-07-13T06:23:20.042Z,9.97
2018-07-13T06:25:48.226Z,9.20
2018-07-13T06:28:16.672Z,10.10
2018-07-13T06:30:45.137Z,9.30
2018-07-13T06:33:14.006Z,10.10
2018-07-13T06:35:42.445Z,10.37
2018-07-13T06:38:10.949Z,9.63
2018-07-13T06:40:39.576Z,8.43
2018-07-13T06:43:08.119Z,10.13
2018-07-13T06:45:37.743Z,9.10
2018-07-13T06:48:06.339Z,10.20
2018-07-13T06:50:34.967Z,10.17
2018-07-13T06:53:03.579Z,9.63
2018-07-13T06:55:32.406Z,8.57
2018-07-13T06:58:11.976Z,9.70
2018-07-13T07:00:59.195Z,9.07
2018-07-13T07:03:29.049Z,8.83
2018-07-13T07:06:02.275Z,9.37
2018-07-13T07:08:32.863Z,8.80
2018-07-13T07:11:01.374Z,9.73
2018-07-13T07:13:34.841Z,8.87
2018-07-13T07:16:03.291Z,9.37
2018-07-13T07:18:31.738Z,8.90
2018-07-13T07:21:00.226Z,8.73
2018-07-13T07:23:29.426Z,7.87
2018-07-13T07:25:58.850Z,9.53
2018-07-13T07:28:27.765Z,10.20
2018-07-13T07:30:56.926Z,9.60
2018-07-13T07:33:25.374Z,9.20
2018-07-13T07:35:53.914Z,10.03
2018-07-13T07:38:22.792Z,8.77
2018-07-13T07:40:51.543Z,10.17
2018-07-13T07:43:20.572Z,9.23
2018-07-13T07:45:49.208Z,9.33
2018-07-13T07:48:17.661Z,9.40
2018-07-13T07:50:46.122Z,9.20
2018-07-13T07:53:14.623Z,8.70
2018-07-13T07:55:43.428Z,8.60
2018-07-13T07:58:11.908Z,8.33
2018-07-13T08:00:40.357Z,8.77
2018-07-13T08:03:08.807Z,7.93
2018-07-13T08:05:37.238Z,8.67
2018-07-13T08:08:05.797Z,8.70
2018-07-13T08:10:34.306Z,9.27
2018-07-13T08:13:02.808Z,10.00
2018-07-13T08:15:31.332Z,8.53
2018-07-13T08:17:59.782Z,8.57
2018-07-13T08:20:33.221Z,7.53
2018-07-13T08:23:03.275Z,8.60
2018-07-13T08:25:31.874Z,9.27
2018-07-13T08:28:01.441Z,7.40
2018-07-13T08:31:06.222Z,7.77
2018-07-13T08:33:34.839Z,7.17
2018-07-13T08:36:03.410Z,6.40
2018-07-13T08:38:32.218Z,8.50
2018-07-13T08:41:00.715Z,8.07
2018-07-13T08:43:29.469Z,7.70
2018-07-13T08:45:58.248Z,6.43
2018-07-13T08:48:26.917Z,5.87
2018-07-13T08:50:55.436Z,5.50
2018-07-13T08:53:24.324Z,8.10
2018-07-13T08:55:52.850Z,7.83
2018-07-13T08:58:21.406Z,8.67
2018-07-13T09:00:49.931Z,7.47
2018-07-13T09:03:18.421Z,7.20
2018-07-13T09:05:47.286Z,8.67
2018-07-13T09:08:16.244Z,7.27
2018-07-13T09:10:45.512Z,7.20
2018-07-13T09:13:14.114Z,7.50
2018-07-13T09:15:42.608Z,6.70
2018-07-13T09:18:11.430Z,7.17
2018-07-13T09:20:40.103Z,7.70
2018-07-13T09:23:08.603Z,7.83
2018-07-13T09:25:37.407Z,7.00
2018-07-13T09:28:06.132Z,6.43
2018-07-13T09:30:34.985Z,4.63
2018-07-13T09:33:03.431Z,5.80
2018-07-13T09:35:31.881Z,6.63
2018-07-13T09:38:00.438Z,6.53
2018-07-13T09:40:29.145Z,5.03
2018-07-13T09:42:59.194Z,5.97
2018-07-13T09:45:27.801Z,4.87
2018-07-13T09:47:56.309Z,5.53
2018-07-13T09:50:24.768Z,5.80
2018-07-13T09:52:53.293Z,4.47
2018-07-13T09:55:21.749Z,5.80
2018-07-13T09:57:50.215Z,5.00
2018-07-13T10:00:18.676Z,5.50
2018-07-13T10:02:47.160Z,4.90
2018-07-13T10:05:15.678Z,5.27
2018-07-13T10:07:44.216Z,4.53
2018-07-13T10:10:12.786Z,4.23
2018-07-13T10:12:41.287Z,5.30
2018-07-13T10:15:09.751Z,5.80
2018-07-13T10:17:38.575Z,4.57
2018-07-13T10:20:07.092Z,4.30
2018-07-13T10:22:35.725Z,5.53
2018-07-13T10:25:04.759Z,5.50
2018-07-13T10:27:34.979Z,5.10
2018-07-13T10:30:04.315Z,4.10
2018-07-13T10:32:33.094Z,5.63
2018-07-13T10:35:03.019Z,4.43
2018-07-13T10:37:31.544Z,5.43
2018-07-13T10:40:00.031Z,5.20
2018-07-13T10:42:28.700Z,4.80
2018-07-13T10:44:57.129Z,4.90
2018-07-13T10:47:26.289Z,4.83
2018-07-13T10:49:54.769Z,4.60
2018-07-13T10:52:23.204Z,4.23
2018-07-13T10:54:51.768Z,3.93
2018-07-13T10:57:20.218Z,3.47
2018-07-13T10:59:48.673Z,3.93
2018-07-13T11:02:17.152Z,3.27
2018-07-13T11:04:45.949Z,3.23
2018-07-13T11:07:14.369Z,3.00
2018-07-13T11:09:42.827Z,3.27
2018-07-13T11:12:11.323Z,3.57
2018-07-13T11:14:39.775Z,3.60
2018-07-13T11:17:08.252Z,3.00
2018-07-13T11:19:36.692Z,2.83
2018-07-13T11:22:05.135Z,2.60
2018-07-13T11:24:33.560Z,2.67
2018-07-13T11:27:02.005Z,3.13
2018-07-13T11:29:30.618Z,2.90
2018-07-13T11:31:59.108Z,3.87
2018-07-13T11:34:27.594Z,3.47
2018-07-13T11:36:56.108Z,4.00
2018-07-13T11:39:24.659Z,3.00
2018-07-13T11:41:53.123Z,3.77
2018-07-13T11:44:21.752Z,2.83
2018-07-13T11:46:50.223Z,3.07
2018-07-13T11:49:18.672Z,5.33
2018-07-13T11:51:47.101Z,3.20
2018-07-13T11:54:15.615Z,2.90
2018-07-13T11:56:44.046Z,2.50
2018-07-13T11:59:12.496Z,3.10
2018-07-13T12:01:40.935Z,2.90
2018-07-13T12:04:09.380Z,2.90
2018-07-13T12:06:39.120Z,3.37
2018-07-13T12:09:08.206Z,2.43
2018-07-13T12:11:36.634Z,3.60
2018-07-13T12:14:05.429Z,2.83
2018-07-13T12:16:33.900Z,2.70
2018-07-13T12:19:02.485Z,3.10
2018-07-13T12:21:30.958Z,2.80
2018-07-13T12:23:59.414Z,2.20
2018-07-13T12:26:27.857Z,2.83
2018-07-13T12:28:56.291Z,2.67
2018-07-13T12:31:24.756Z,2.20
2018-07-13T12:33:53.175Z,2.57
2018-07-13T12:36:21.630Z,2.60
2018-07-13T12:38:50.389Z,3.30
2018-07-13T12:41:18.860Z,2.90
2018-07-13T12:43:47.274Z,3.77
2018-07-13T12:46:15.723Z,3.00
2018-07-13T12:48:44.205Z,2.83
2018-07-13T12:51:12.623Z,2.93
2018-07-13T12:53:41.162Z,3.40
2018-07-13T12:56:09.604Z,3.07
2018-07-13T12:58:38.155Z,3.63
2018-07-13T13:01:06.560Z,2.70
2018-07-13T13:03:35.201Z,2.73
2018-07-13T13:06:03.833Z,3.47
2018-07-13T13:08:32.568Z,3.10
2018-07-13T13:11:01.218Z,3.17
2018-07-13T13:13:30.212Z,3.13
2018-07-13T13:15:58.675Z,2.40
2018-07-13T13:18:27.118Z,2.77
2018-07-13T13:20:55.588Z,3.07
2018-07-13T13:23:24.040Z,2.43
2018-07-13T13:25:52.515Z,2.00
2018-07-13T13:28:20.953Z,2.27
2018-07-13T13:30:49.430Z,2.73
2018-07-13T13:33:17.926Z,2.53
2018-07-13T13:35:46.431Z,2.13
2018-07-13T13:38:14.875Z,34.50
2018-07-13T13:40:43.337Z,2.40
2018-07-13T13:43:11.799Z,3.10
2018-07-13T13:45:40.260Z,2.80
2018-07-13T13:48:08.701Z,2.80
2018-07-13T13:50:37.193Z,3.17
2018-07-13T13:53:05.969Z,2.10
2018-07-13T13:55:34.756Z,2.87
2018-07-13T13:58:03.581Z,2.80
2018-07-13T14:00:32.360Z,2.10
2018-07-13T14:03:02.858Z,2.27
2018-07-13T14:05:31.430Z,2.10
2018-07-13T14:08:00.945Z,2.20
2018-07-13T14:10:29.453Z,2.37
2018-07-13T14:12:57.873Z,2.50
2018-07-13T14:15:26.666Z,2.47
2018-07-13T14:17:55.506Z,2.73
2018-07-13T14:20:24.024Z,2.63
2018-07-13T14:22:52.629Z,2.20
2018-07-13T14:25:21.082Z,2.70
2018-07-13T14:27:49.514Z,2.50
2018-07-13T14:30:18.323Z,2.43
2018-07-13T14:32:46.760Z,2.70
2018-07-13T14:35:15.178Z,2.17
2018-07-13T14:37:43.733Z,2.43
2018-07-13T14:40:12.246Z,1.70
2018-07-13T14:42:40.857Z,2.17
2018-07-13T14:45:09.300Z,2.00
2018-07-13T14:47:38.033Z,2.20
2018-07-13T14:50:06.889Z,2.43
2018-07-13T14:52:36.751Z,2.47
2018-07-13T14:55:06.008Z,2.00
2018-07-13T14:57:34.782Z,2.60
2018-07-13T15:00:03.326Z,5.13
2018-07-13T15:02:31.996Z,2.03
2018-07-13T15:05:00.515Z,2.20
2018-07-13T15:07:29.121Z,2.00
2018-07-13T15:09:57.615Z,2.37
2018-07-13T15:12:26.071Z,1.80
2018-07-13T15:14:54.875Z,1.90
2018-07-13T15:17:23.288Z,1.57
2018-07-13T15:19:51.923Z,2.23
2018-07-13T15:22:20.359Z,2.30
2018-07-13T15:24:48.808Z,2.30
2018-07-13T15:27:17.293Z,1.90
2018-07-13T15:29:45.907Z,2.27
2018-07-13T15:32:14.378Z,2.03
2018-07-13T15:34:43.103Z,2.10
2018-07-13T15:37:11.567Z,4.70
2018-07-13T15:39:40.000Z,1.80
2018-07-13T15:42:09.080Z,1.93
2018-07-13T15:44:37.522Z,1.87
2018-07-13T15:47:05.999Z,2.20
2018-07-13T15:49:34.098Z,2.00
2018-07-13T15:52:02.580Z,2.30
2018-07-13T15:54:31.027Z,3.40
2018-07-13T15:56:59.482Z,2.07
2018-07-13T15:59:27.919Z,2.10
2018-07-13T16:01:56.335Z,2.00
2018-07-13T16:04:25.201Z,2.50
2018-07-13T16:06:53.637Z,2.20
2018-07-13T16:09:22.190Z,2.20
2018-07-13T16:11:50.638Z,2.07
2018-07-13T16:14:19.102Z,1.80
2018-07-13T16:16:47.748Z,2.53
2018-07-13T16:19:16.172Z,2.07
2018-07-13T16:21:44.626Z,1.80
2018-07-13T16:24:13.132Z,1.73
2018-07-13T16:26:41.583Z,1.73
2018-07-13T16:29:10.399Z,1.80
2018-07-13T16:31:38.858Z,1.87
2018-07-13T16:34:07.339Z,1.73
2018-07-13T16:36:35.950Z,1.60
2018-07-13T16:39:05.080Z,2.20
2018-07-13T16:41:33.543Z,1.70
2018-07-13T16:44:01.960Z,2.00
2018-07-13T16:46:30.423Z,1.60
2018-07-13T16:48:58.899Z,1.90
2018-07-13T16:51:27.367Z,2.03
2018-07-13T16:53:55.927Z,2.17
2018-07-13T16:56:24.503Z,2.20
2018-07-13T16:58:53.057Z,2.40
2018-07-13T17:01:21.568Z,2.80
2018-07-13T17:03:50.034Z,1.67
2018-07-13T17:06:18.488Z,2.03
2018-07-13T17:08:47.112Z,1.70
2018-07-13T17:11:15.857Z,1.77
2018-07-13T17:13:44.320Z,2.17
2018-07-13T17:16:12.768Z,2.63
2018-07-13T17:18:41.202Z,1.50
2018-07-13T17:21:09.632Z,2.50
2018-07-13T17:23:38.127Z,2.00
2018-07-13T17:26:07.051Z,2.10
2018-07-13T17:28:35.858Z,1.80
2018-07-13T17:31:04.332Z,1.90
2018-07-13T17:33:32.861Z,2.07
2018-07-13T17:36:01.351Z,2.23
2018-07-13T17:38:29.861Z,2.07
2018-07-13T17:40:58.311Z,2.10
2018-07-13T17:43:26.775Z,2.00
2018-07-13T17:45:55.269Z,2.10
2018-07-13T17:48:23.740Z,2.20
2018-07-13T17:50:52.159Z,1.87
2018-07-13T17:53:20.657Z,2.60
2018-07-13T17:55:49.476Z,1.93
2018-07-13T17:58:17.924Z,2.30
2018-07-13T18:00:46.466Z,2.63
2018-07-13T18:03:15.079Z,2.30
2018-07-13T18:05:43.588Z,2.20
2018-07-13T18:08:12.447Z,2.97
2018-07-13T18:10:40.938Z,2.30
2018-07-13T18:13:09.403Z,2.13
2018-07-13T18:15:40.478Z,3.07
2018-07-13T18:18:09.036Z,2.83
2018-07-13T18:20:37.529Z,2.97
2018-07-13T18:23:06.586Z,3.23
2018-07-13T18:25:35.316Z,2.60
2018-07-13T18:28:03.796Z,3.33
2018-07-13T18:30:32.426Z,2.67
2018-07-13T18:33:00.915Z,3.30
2018-07-13T18:35:29.379Z,1.97
2018-07-13T18:37:57.819Z,2.97
2018-07-13T18:40:26.315Z,2.73
2018-07-13T18:42:54.809Z,3.20
2018-07-13T18:45:23.233Z,2.47
2018-07-13T18:47:52.092Z,2.87
2018-07-13T18:50:20.551Z,2.63
2018-07-13T18:52:49.012Z,2.30
2018-07-13T18:55:17.851Z,2.80
2018-07-13T18:57:46.260Z,2.60
2018-07-13T19:00:14.753Z,2.63
2018-07-13T19:02:43.765Z,2.20
2018-07-13T19:05:12.262Z,2.10
2018-07-13T19:07:40.770Z,2.50
2018-07-13T19:10:09.219Z,3.20
2018-07-13T19:12:37.709Z,3.67
2018-07-13T19:15:06.360Z,3.17
2018-07-13T19:17:34.839Z,2.70
2018-07-13T19:20:03.399Z,2.63
2018-07-13T19:22:32.702Z,2.40
2018-07-13T19:25:01.494Z,2.40
2018-07-13T19:27:30.163Z,3.03
2018-07-13T19:29:58.652Z,2.23
2018-07-13T19:32:27.098Z,2.50
2018-07-13T19:34:55.585Z,2.47
2018-07-13T19:37:24.018Z,2.80
2018-07-13T19:39:52.633Z,2.67
2018-07-13T19:42:21.225Z,2.37
2018-07-13T19:44:49.812Z,2.40
2018-07-13T19:47:18.256Z,2.00
2018-07-13T19:49:46.787Z,2.53
2018-07-13T19:52:15.191Z,2.43
2018-07-13T19:54:43.641Z,2.73
2018-07-13T19:57:12.191Z,2.40
2018-07-13T19:59:40.844Z,2.67
2018-07-13T20:02:09.275Z,2.83
2018-07-13T20:04:37.890Z,3.37
2018-07-13T20:07:06.791Z,2.43
2018-07-13T20:09:35.695Z,2.63
2018-07-13T20:12:04.162Z,2.53
2018-07-13T20:14:32.634Z,2.90
2018-07-13T20:17:01.231Z,2.40
2018-07-13T20:19:30.088Z,2.87
2018-07-13T20:21:58.538Z,2.57
2018-07-13T20:24:26.987Z,2.60
2018-07-13T20:26:55.452Z,2.77
2018-07-13T20:29:24.209Z,3.03
2018-07-13T20:31:52.674Z,2.60
2018-07-13T20:34:21.103Z,2.70
2018-07-13T20:36:51.262Z,2.77
2018-07-13T20:39:19.754Z,2.47
2018-07-13T20:41:48.403Z,3.47
2018-07-13T20:44:16.528Z,3.20
2018-07-13T20:46:45.861Z,3.13
2018-07-13T20:49:15.176Z,3.17
2018-07-13T20:51:43.724Z,2.83
2018-07-13T20:54:12.169Z,3.83
2018-07-13T20:56:40.814Z,3.20
2018-07-13T20:59:09.306Z,3.50
2018-07-13T21:01:37.890Z,3.47
2018-07-13T21:04:06.406Z,3.60
2018-07-13T21:06:34.904Z,3.60
2018-07-13T21:09:03.735Z,2.87
2018-07-13T21:11:32.204Z,3.23
2018-07-13T21:14:00.700Z,3.50
2018-07-13T21:16:29.134Z,3.07
2018-07-13T21:18:57.563Z,2.97
2018-07-13T21:21:26.005Z,4.03
2018-07-13T21:23:54.483Z,2.47
2018-07-13T21:26:22.933Z,3.40
2018-07-13T21:28:51.363Z,3.13
2018-07-13T21:31:19.976Z,3.83
2018-07-13T21:33:48.427Z,4.07
2018-07-13T21:36:16.906Z,3.80
2018-07-13T21:38:45.356Z,3.10
2018-07-13T21:41:14.196Z,3.37
2018-07-13T21:43:42.618Z,3.77
2018-07-13T21:46:13.997Z,3.80
2018-07-13T21:48:45.432Z,3.10
2018-07-13T21:51:14.040Z,3.30
2018-07-13T21:53:42.534Z,3.77
2018-07-13T21:56:10.970Z,3.10
2018-07-13T21:58:39.434Z,4.10
2018-07-13T22:01:07.988Z,3.37
2018-07-13T22:03:36.428Z,3.43
2018-07-13T22:06:05.819Z,3.60
2018-07-13T22:08:34.313Z,4.07
2018-07-13T22:11:02.767Z,3.23
2018-07-13T22:13:31.247Z,3.20
2018-07-13T22:15:59.793Z,4.10
2018-07-13T22:18:28.355Z,3.50
2018-07-13T22:20:56.951Z,2.70
2018-07-13T22:23:25.415Z,3.70
2018-07-13T22:25:53.840Z,3.43
2018-07-13T22:28:22.307Z,3.10
2018-07-13T22:30:50.785Z,3.63
2018-07-13T22:33:19.251Z,3.33
2018-07-13T22:35:47.685Z,3.50
2018-07-13T22:38:16.128Z,3.50
2018-07-13T22:40:44.567Z,4.03
2018-07-13T22:43:13.216Z,2.90
2018-07-13T22:45:41.675Z,4.17
2018-07-13T22:48:10.107Z,3.73
2018-07-13T22:50:38.588Z,3.47
2018-07-13T22:53:07.411Z,3.67
2018-07-13T22:55:35.877Z,3.43
2018-07-13T22:58:04.416Z,4.27
2018-07-13T23:03:24.020Z,3.50
2018-07-13T23:05:52.539Z,3.13
2018-07-13T23:08:21.039Z,4.07
2018-07-13T23:11:00.000Z,3.70
2018-07-13T23:13:32.164Z,4.50
2018-07-13T23:16:00.655Z,4.33
2018-07-13T23:18:29.272Z,4.50
2018-07-13T23:20:58.074Z,3.63
2018-07-13T23:23:26.742Z,3.67
2018-07-13T23:26:00.479Z,4.00
2018-07-13T23:28:31.243Z,3.50
2018-07-13T23:31:00.087Z,3.70
2018-07-13T23:33:28.873Z,4.37
2018-07-13T23:35:57.450Z,3.83
2018-07-13T23:38:26.329Z,3.73
2018-07-13T23:40:55.466Z,4.50
2018-07-13T23:43:24.431Z,4.27
2018-07-13T23:45:53.120Z,3.97
2018-07-13T23:48:22.735Z,4.50
2018-07-13T23:50:55.874Z,3.73
2018-07-13T23:53:24.706Z,4.37
2018-07-13T23:55:53.812Z,4.17
2018-07-13T23:58:22.717Z,3.37
